createdAt,value
2018-06-27T00:00:49.116Z,99.99
2018-06-27T00:01:49.175Z,99.99
2018-06-27T00:02:49.236Z,99.99
2018-06-27T00:03:49.294Z,99.99
2018-06-27T00:04:49.353Z,99.99
2018-06-27T00:05:49.414Z,99.99
2018-06-27T00:06:49.472Z,99.99
2018-06-27T00:07:49.536Z,99.99
2018-06-27T00:08:49.593Z,99.99
2018-06-27T00:09:49.653Z,99.99
2018-06-27T00:10:49.712Z,99.99
2018-06-27T00:11:49.773Z,99.99
2018-06-27T00:12:49.831Z,99.99
2018-06-27T00:13:49.891Z,99.99
2018-06-27T00:14:49.952Z,99.99
2018-06-27T00:15:50.011Z,99.99
2018-06-27T00:16:50.071Z,99.99
2018-06-27T00:17:50.130Z,99.99
2018-06-27T00:18:50.190Z,99.99
2018-06-27T00:19:50.251Z,99.99
2018-06-27T00:20:50.309Z,99.99
2018-06-27T00:21:50.368Z,99.99
2018-06-27T00:22:50.428Z,99.99
2018-06-27T00:23:50.739Z,99.99
2018-06-27T00:24:50.548Z,99.99
2018-06-27T00:25:50.609Z,99.99
2018-06-27T00:26:50.668Z,99.99
2018-06-27T00:27:50.726Z,99.99
2018-06-27T00:28:50.786Z,99.99
2018-06-27T00:29:50.846Z,99.99
2018-06-27T00:30:50.904Z,99.99
2018-06-27T00:31:50.966Z,99.99
2018-06-27T00:32:51.025Z,99.99
2018-06-27T00:33:51.117Z,99.99
2018-06-27T00:34:51.143Z,99.99
2018-06-27T00:35:51.204Z,99.99
2018-06-27T00:36:51.262Z,99.99
2018-06-27T00:37:51.322Z,99.99
2018-06-27T00:38:51.382Z,99.99
2018-06-27T00:39:51.441Z,99.99
2018-06-27T00:40:51.651Z,99.99
2018-06-27T00:41:51.562Z,99.99
2018-06-27T00:42:51.620Z,99.99
2018-06-27T00:43:51.680Z,99.99
2018-06-27T00:44:51.739Z,99.99
2018-06-27T00:45:51.800Z,99.99
2018-06-27T00:46:51.857Z,99.99
2018-06-27T00:47:51.917Z,99.99
2018-06-27T00:48:51.978Z,99.99
2018-06-27T00:49:52.036Z,99.99
2018-06-27T00:50:52.095Z,99.99
2018-06-27T00:51:52.155Z,99.99
2018-06-27T00:52:52.215Z,99.99
2018-06-27T00:53:52.274Z,99.99
2018-06-27T00:54:52.333Z,99.99
2018-06-27T00:55:52.393Z,99.99
2018-06-27T00:56:52.454Z,99.99
2018-06-27T00:57:52.512Z,99.99
2018-06-27T00:58:52.574Z,99.99
2018-06-27T00:59:52.630Z,99.99
2018-06-27T01:00:52.690Z,99.99
2018-06-27T01:01:52.749Z,99.99
2018-06-27T01:02:52.808Z,99.99
2018-06-27T01:03:52.869Z,99.99
2018-06-27T01:04:52.927Z,99.99
2018-06-27T01:05:52.987Z,99.99
2018-06-27T01:06:53.055Z,99.99
2018-06-27T01:07:53.106Z,99.99
2018-06-27T01:08:53.165Z,99.99
2018-06-27T01:09:53.225Z,99.99
2018-06-27T01:10:53.283Z,99.99
2018-06-27T01:11:53.343Z,99.99
2018-06-27T01:12:53.403Z,99.99
2018-06-27T01:13:53.462Z,99.99
2018-06-27T01:14:53.522Z,99.99
2018-06-27T01:15:53.580Z,99.99
2018-06-27T01:16:53.640Z,99.99
2018-06-27T01:17:53.700Z,99.99
2018-06-27T01:18:53.759Z,99.99
2018-06-27T01:19:53.817Z,99.99
2018-06-27T01:20:53.878Z,99.99
2018-06-27T01:21:53.939Z,99.99
2018-06-27T01:22:53.995Z,99.99
2018-06-27T01:23:54.054Z,99.99
2018-06-27T01:24:54.116Z,99.99
2018-06-27T01:25:54.174Z,99.99
2018-06-27T01:26:54.233Z,99.99
2018-06-27T01:27:54.293Z,99.99
2018-06-27T01:28:54.357Z,99.99
2018-06-27T01:29:54.411Z,99.99
2018-06-27T01:30:54.472Z,99.99
2018-06-27T01:31:54.529Z,99.99
2018-06-27T01:32:54.588Z,99.99
2018-06-27T01:33:54.648Z,99.99
2018-06-27T01:34:54.706Z,99.99
2018-06-27T01:35:54.766Z,99.99
2018-06-27T01:36:54.826Z,99.99
2018-06-27T01:37:54.885Z,99.99
2018-06-27T01:38:54.945Z,99.99
2018-06-27T01:39:55.003Z,99.99
2018-06-27T01:40:55.063Z,99.99
2018-06-27T01:41:55.122Z,99.99
2018-06-27T01:42:55.180Z,99.99
2018-06-27T01:43:55.393Z,99.99
2018-06-27T01:44:55.299Z,99.99
2018-06-27T01:45:55.360Z,99.99
2018-06-27T01:46:55.418Z,99.99
2018-06-27T01:47:55.479Z,99.99
2018-06-27T01:48:55.537Z,99.99
2018-06-27T01:49:55.596Z,99.99
2018-06-27T01:50:55.655Z,99.99
2018-06-27T01:51:55.714Z,99.99
2018-06-27T01:52:55.773Z,99.99
2018-06-27T01:53:55.833Z,99.99
2018-06-27T01:54:55.893Z,99.99
2018-06-27T01:55:55.953Z,99.99
2018-06-27T01:56:56.011Z,99.99
2018-06-27T01:57:56.071Z,99.99
2018-06-27T01:58:56.128Z,99.99
2018-06-27T01:59:56.190Z,99.99
2018-06-27T02:00:56.246Z,99.99
2018-06-27T02:01:56.306Z,99.99
2018-06-27T02:02:56.364Z,99.99
2018-06-27T02:03:56.427Z,99.99
2018-06-27T02:04:56.483Z,99.99
2018-06-27T02:05:56.542Z,99.99
2018-06-27T02:06:56.601Z,99.99
2018-06-27T02:07:56.661Z,99.99
2018-06-27T02:08:56.719Z,99.99
2018-06-27T02:09:56.782Z,99.99
2018-06-27T02:10:56.837Z,99.99
2018-06-27T02:11:56.898Z,99.99
2018-06-27T02:12:56.956Z,99.99
2018-06-27T02:13:57.015Z,99.99
2018-06-27T02:14:57.074Z,99.99
2018-06-27T02:15:57.136Z,99.99
2018-06-27T02:16:57.192Z,99.99
2018-06-27T02:17:57.253Z,99.99
2018-06-27T02:18:57.310Z,99.99
2018-06-27T02:19:57.369Z,99.99
2018-06-27T02:20:57.430Z,99.99
2018-06-27T02:21:57.488Z,99.99
2018-06-27T02:22:57.596Z,99.99
2018-06-27T02:23:57.606Z,99.99
2018-06-27T02:24:57.665Z,99.99
2018-06-27T02:25:57.726Z,99.99
2018-06-27T02:26:57.784Z,99.99
2018-06-27T02:27:57.842Z,99.99
2018-06-27T02:28:57.901Z,99.99
2018-06-27T02:29:57.961Z,99.99
2018-06-27T02:30:58.019Z,99.99
2018-06-27T02:31:58.088Z,99.99
2018-06-27T02:32:58.137Z,99.99
2018-06-27T02:33:58.197Z,99.99
2018-06-27T02:34:58.255Z,99.99
2018-06-27T02:35:58.315Z,99.99
2018-06-27T02:36:58.375Z,99.99
2018-06-27T02:37:58.433Z,99.99
2018-06-27T02:38:58.494Z,99.99
2018-06-27T02:39:58.549Z,99.99
2018-06-27T02:40:58.610Z,99.99
2018-06-27T02:41:58.670Z,99.99
2018-06-27T02:42:58.727Z,99.99
2018-06-27T02:43:58.786Z,99.99
2018-06-27T02:44:58.845Z,99.99
2018-06-27T02:45:58.913Z,99.99
2018-06-27T02:46:58.963Z,99.99
2018-06-27T02:47:59.022Z,99.99
2018-06-27T02:48:59.082Z,99.99
2018-06-27T02:49:59.142Z,99.99
2018-06-27T02:50:59.200Z,99.99
2018-06-27T02:51:59.258Z,99.99
2018-06-27T02:52:59.319Z,99.99
2018-06-27T02:53:59.379Z,99.99
2018-06-27T02:54:59.436Z,99.99
2018-06-27T02:55:59.495Z,99.99
2018-06-27T02:56:59.555Z,99.99
2018-06-27T02:57:59.866Z,99.99
2018-06-27T02:58:59.671Z,99.99
2018-06-27T02:59:59.731Z,99.99
2018-06-27T03:00:59.791Z,99.99
2018-06-27T03:01:59.849Z,99.99
2018-06-27T03:02:59.907Z,99.99
2018-06-27T03:03:59.966Z,99.99
2018-06-27T03:05:00.036Z,99.99
2018-06-27T03:06:00.087Z,99.99
2018-06-27T03:07:00.145Z,99.99
2018-06-27T03:08:00.202Z,99.99
2018-06-27T03:09:00.263Z,99.99
2018-06-27T03:10:00.322Z,99.99
2018-06-27T03:11:00.381Z,99.99
2018-06-27T03:12:00.439Z,99.99
2018-06-27T03:13:00.502Z,99.99
2018-06-27T03:14:00.566Z,99.99
2018-06-27T03:15:00.867Z,99.99
2018-06-27T03:16:00.676Z,99.99
2018-06-27T03:17:00.735Z,99.99
2018-06-27T03:18:00.796Z,99.99
2018-06-27T03:19:00.852Z,99.99
2018-06-27T03:20:00.911Z,99.99
2018-06-27T03:21:00.971Z,99.99
2018-06-27T03:22:01.031Z,99.99
2018-06-27T03:23:01.089Z,99.99
2018-06-27T03:24:01.150Z,99.99
2018-06-27T03:25:01.209Z,99.99
2018-06-27T03:26:01.269Z,99.99
2018-06-27T03:27:01.326Z,99.99
2018-06-27T03:28:01.386Z,99.99
2018-06-27T03:29:01.444Z,99.99
2018-06-27T03:30:01.504Z,99.99
2018-06-27T03:31:01.570Z,99.99
2018-06-27T03:32:01.623Z,99.99
2018-06-27T03:33:01.682Z,99.99
2018-06-27T03:34:01.740Z,99.99
2018-06-27T03:35:01.802Z,99.99
2018-06-27T03:36:01.858Z,99.99
2018-06-27T03:37:01.915Z,99.99
2018-06-27T03:38:01.976Z,99.99
2018-06-27T03:39:02.035Z,99.99
2018-06-27T03:40:02.095Z,99.99
2018-06-27T03:41:02.155Z,99.99
2018-06-27T03:42:02.211Z,99.99
2018-06-27T03:43:02.270Z,99.99
2018-06-27T03:44:02.329Z,99.99
2018-06-27T03:45:02.388Z,99.99
2018-06-27T03:46:02.447Z,99.99
2018-06-27T03:47:02.506Z,99.99
2018-06-27T03:48:02.566Z,99.99
2018-06-27T03:49:02.624Z,99.99
2018-06-27T03:50:02.683Z,99.99
2018-06-27T03:51:02.741Z,99.99
2018-06-27T03:52:02.800Z,99.99
2018-06-27T03:53:02.860Z,99.99
2018-06-27T03:54:03.068Z,99.99
2018-06-27T03:55:03.689Z,99.99
2018-06-27T03:56:03.037Z,99.99
2018-06-27T03:57:03.101Z,99.99
2018-06-27T03:58:03.359Z,99.99
2018-06-27T03:59:03.265Z,99.99
2018-06-27T04:00:03.272Z,99.99
2018-06-27T04:01:03.329Z,99.99
2018-06-27T04:02:03.389Z,99.99
2018-06-27T04:03:03.447Z,99.99
2018-06-27T04:04:03.507Z,99.99
2018-06-27T04:05:03.567Z,99.99
2018-06-27T04:06:03.625Z,99.99
2018-06-27T04:07:03.683Z,99.99
2018-06-27T04:08:03.744Z,99.99
2018-06-27T04:09:03.803Z,99.99
2018-06-27T04:10:03.861Z,99.99
2018-06-27T04:11:03.920Z,99.99
2018-06-27T04:12:03.979Z,99.99
2018-06-27T04:13:04.170Z,99.99
2018-06-27T04:14:04.097Z,99.99
2018-06-27T04:15:04.154Z,99.99
2018-06-27T04:16:04.223Z,99.99
2018-06-27T04:17:04.272Z,99.99
2018-06-27T04:18:04.332Z,99.99
2018-06-27T04:19:04.394Z,99.99
2018-06-27T04:20:04.453Z,99.99
2018-06-27T04:21:04.508Z,99.99
2018-06-27T04:22:04.568Z,99.99
2018-06-27T04:23:04.625Z,99.99
2018-06-27T04:24:04.684Z,99.99
2018-06-27T04:25:04.745Z,99.99
2018-06-27T04:26:04.804Z,99.99
2018-06-27T04:27:04.863Z,99.99
2018-06-27T04:28:04.921Z,99.99
2018-06-27T04:29:04.980Z,99.99
2018-06-27T04:30:05.042Z,99.99
2018-06-27T04:31:05.096Z,99.99
2018-06-27T04:32:05.156Z,99.99
2018-06-27T04:33:05.215Z,99.99
2018-06-27T04:34:05.274Z,99.99
2018-06-27T04:35:05.334Z,99.99
2018-06-27T04:36:05.450Z,99.99
2018-06-27T04:37:05.451Z,99.99
2018-06-27T04:38:05.511Z,99.99
2018-06-27T04:39:05.571Z,99.99
2018-06-27T04:40:05.628Z,99.99
2018-06-27T04:41:05.688Z,99.99
2018-06-27T04:42:05.747Z,99.99
2018-06-27T04:43:05.850Z,99.99
2018-06-27T04:44:05.865Z,99.99
2018-06-27T04:45:05.924Z,99.99
2018-06-27T04:46:05.984Z,99.99
2018-06-27T04:47:06.042Z,99.99
2018-06-27T04:48:06.101Z,99.99
2018-06-27T04:49:06.162Z,99.99
2018-06-27T04:50:06.221Z,99.99
2018-06-27T04:51:06.278Z,99.99
2018-06-27T04:52:06.339Z,99.99
2018-06-27T04:53:06.398Z,99.99
2018-06-27T04:54:06.457Z,99.99
2018-06-27T04:55:06.519Z,99.99
2018-06-27T04:56:06.576Z,99.99
2018-06-27T04:57:06.635Z,99.99
2018-06-27T04:58:06.696Z,99.99
2018-06-27T04:59:06.753Z,99.99
2018-06-27T05:00:06.812Z,99.99
2018-06-27T05:01:06.871Z,99.99
2018-06-27T05:02:06.933Z,99.99
2018-06-27T05:03:06.994Z,99.99
2018-06-27T05:04:07.048Z,99.99
2018-06-27T05:05:07.110Z,99.99
2018-06-27T05:06:07.169Z,99.99
2018-06-27T05:07:07.229Z,99.99
2018-06-27T05:08:07.288Z,99.99
2018-06-27T05:09:07.348Z,99.99
2018-06-27T05:10:07.408Z,99.99
2018-06-27T05:11:07.467Z,99.99
2018-06-27T05:12:07.526Z,99.99
2018-06-27T05:13:07.588Z,99.99
2018-06-27T05:14:07.645Z,99.99
2018-06-27T05:15:07.704Z,99.99
2018-06-27T05:16:07.765Z,99.99
2018-06-27T05:17:07.824Z,99.99
2018-06-27T05:18:07.884Z,99.99
2018-06-27T05:19:07.943Z,99.99
2018-06-27T05:20:08.003Z,99.99
2018-06-27T05:21:08.063Z,99.99
2018-06-27T05:22:08.123Z,99.99
2018-06-27T05:23:08.181Z,99.99
2018-06-27T05:24:08.242Z,99.99
2018-06-27T05:25:08.301Z,99.99
2018-06-27T05:26:08.361Z,99.99
2018-06-27T05:27:08.420Z,99.99
2018-06-27T05:28:08.482Z,99.99
2018-06-27T05:29:08.540Z,99.99
2018-06-27T05:30:08.601Z,99.99
2018-06-27T05:31:08.658Z,99.99
2018-06-27T05:32:08.721Z,99.99
2018-06-27T05:33:08.780Z,99.99
2018-06-27T05:34:08.839Z,99.99
2018-06-27T05:35:08.908Z,99.99
2018-06-27T05:36:08.958Z,99.99
2018-06-27T05:37:09.021Z,99.99
2018-06-27T05:38:09.080Z,99.99
2018-06-27T05:39:09.139Z,99.99
2018-06-27T05:40:09.198Z,99.99
2018-06-27T05:41:09.258Z,99.99
2018-06-27T05:42:09.318Z,99.99
2018-06-27T05:43:09.530Z,99.99
2018-06-27T05:44:09.497Z,99.99
2018-06-27T05:45:09.498Z,99.99
2018-06-27T05:46:09.559Z,99.99
2018-06-27T05:47:09.618Z,99.99
2018-06-27T05:48:09.679Z,99.99
2018-06-27T05:49:09.905Z,99.99
2018-06-27T05:50:09.802Z,99.99
2018-06-27T05:51:09.858Z,99.99
2018-06-27T05:52:09.923Z,99.99
2018-06-27T05:53:09.981Z,99.99
2018-06-27T05:54:10.041Z,99.99
2018-06-27T05:55:10.100Z,99.99
2018-06-27T05:56:10.160Z,99.99
2018-06-27T05:57:10.220Z,99.99
2018-06-27T05:58:10.385Z,99.99
2018-06-27T05:59:10.340Z,99.99
2018-06-27T06:00:10.402Z,99.99
2018-06-27T06:01:10.467Z,99.99
2018-06-27T06:02:10.522Z,99.99
2018-06-27T06:03:10.583Z,99.99
2018-06-27T06:04:10.642Z,99.99
2018-06-27T06:05:10.703Z,99.99
2018-06-27T06:06:10.763Z,99.99
2018-06-27T06:07:10.824Z,99.99
2018-06-27T06:08:10.885Z,99.99
2018-06-27T06:09:10.945Z,99.99
2018-06-27T06:10:11.010Z,99.99
2018-06-27T06:11:11.080Z,99.99
2018-06-27T06:12:11.126Z,99.99
2018-06-27T06:13:11.187Z,99.99
2018-06-27T06:14:11.246Z,99.99
2018-06-27T06:15:11.308Z,99.99
2018-06-27T06:16:11.368Z,99.99
2018-06-27T06:17:11.429Z,99.99
2018-06-27T06:18:11.490Z,99.99
2018-06-27T06:19:11.555Z,99.99
2018-06-27T06:20:11.611Z,99.99
2018-06-27T06:21:11.672Z,99.99
2018-06-27T06:22:11.733Z,99.99
2018-06-27T06:23:11.792Z,99.99
2018-06-27T06:24:11.855Z,99.99
2018-06-27T06:25:11.914Z,99.99
2018-06-27T06:26:11.975Z,99.99
2018-06-27T06:27:12.035Z,99.99
2018-06-27T06:28:12.096Z,99.99
2018-06-27T06:29:12.156Z,99.99
2018-06-27T06:30:12.218Z,99.99
2018-06-27T06:31:12.278Z,99.99
2018-06-27T06:32:12.381Z,99.99
2018-06-27T06:33:12.401Z,99.99
2018-06-27T06:34:12.462Z,99.99
2018-06-27T06:35:12.521Z,99.99
2018-06-27T06:36:12.583Z,99.99
2018-06-27T06:37:12.643Z,99.99
2018-06-27T06:38:12.707Z,99.99
2018-06-27T06:39:12.764Z,99.99
2018-06-27T06:40:12.826Z,99.99
2018-06-27T06:41:12.887Z,99.99
2018-06-27T06:42:12.949Z,99.99
2018-06-27T06:43:13.024Z,99.99
2018-06-27T06:44:13.070Z,99.99
2018-06-27T06:45:13.132Z,99.99
2018-06-27T06:46:13.273Z,99.99
2018-06-27T06:47:13.252Z,99.99
2018-06-27T06:48:13.316Z,99.99
2018-06-27T06:49:13.376Z,99.99
2018-06-27T06:50:13.439Z,99.99
2018-06-27T06:51:13.499Z,99.99
2018-06-27T06:52:13.609Z,99.99
2018-06-27T06:53:13.621Z,99.99
2018-06-27T06:54:13.683Z,99.99
2018-06-27T06:55:13.742Z,99.99
2018-06-27T06:56:13.805Z,99.99
2018-06-27T06:57:13.867Z,99.99
2018-06-27T06:58:13.929Z,99.99
2018-06-27T06:59:13.990Z,99.99
2018-06-27T07:00:14.052Z,99.99
2018-06-27T07:01:14.144Z,99.99
2018-06-27T07:02:14.175Z,99.99
2018-06-27T07:03:14.236Z,99.99
2018-06-27T07:04:15.042Z,99.99
2018-06-27T07:05:14.361Z,99.99
2018-06-27T07:06:14.422Z,99.99
2018-06-27T07:07:14.488Z,99.99
2018-06-27T07:08:14.546Z,99.99
2018-06-27T07:09:14.607Z,99.99
2018-06-27T07:10:14.669Z,99.99
2018-06-27T07:11:14.849Z,99.99
2018-06-27T07:12:14.793Z,99.99
2018-06-27T07:13:14.853Z,99.99
2018-06-27T07:14:14.916Z,99.99
2018-06-27T07:15:14.977Z,99.99
2018-06-27T07:16:15.046Z,99.99
2018-06-27T07:17:15.102Z,99.99
2018-06-27T07:18:15.165Z,99.99
2018-06-27T07:19:15.227Z,99.99
2018-06-27T07:20:15.288Z,99.99
2018-06-27T07:21:15.352Z,99.99
2018-06-27T07:22:15.414Z,99.99
2018-06-27T07:23:15.477Z,99.99
2018-06-27T07:24:15.537Z,99.99
2018-06-27T07:25:15.601Z,99.99
2018-06-27T07:26:15.662Z,99.73
2018-06-27T07:27:15.723Z,99.59
2018-06-27T07:28:15.787Z,99.21
2018-06-27T07:29:15.850Z,99.11
2018-06-27T07:30:15.912Z,98.63
2018-06-27T07:31:15.973Z,98.63
2018-06-27T07:32:16.038Z,98.82
2018-06-27T07:33:16.099Z,98.34
2018-06-27T07:34:16.164Z,97.71
2018-06-27T07:35:16.226Z,97.67
2018-06-27T07:36:16.674Z,97.42
2018-06-27T07:37:16.350Z,97.91
2018-06-27T07:38:16.414Z,98.39
2018-06-27T07:39:16.475Z,97.04
2018-06-27T07:40:16.538Z,97.04
2018-06-27T07:41:16.600Z,96.66
2018-06-27T07:42:16.663Z,96.70
2018-06-27T07:43:16.725Z,96.22
2018-06-27T07:44:16.792Z,96.80
2018-06-27T07:45:16.851Z,95.74
2018-06-27T07:46:16.915Z,95.26
2018-06-27T07:47:16.976Z,95.84
2018-06-27T07:48:17.040Z,94.97
2018-06-27T07:49:17.102Z,94.59
2018-06-27T07:50:17.167Z,95.07
2018-06-27T07:51:17.228Z,95.26
2018-06-27T07:52:17.291Z,94.78
2018-06-27T07:53:17.355Z,94.10
2018-06-27T07:54:17.418Z,93.72
2018-06-27T07:55:17.489Z,94.30
2018-06-27T07:56:17.544Z,93.48
2018-06-27T07:57:17.607Z,93.48
2018-06-27T07:58:17.670Z,93.09
2018-06-27T07:59:17.732Z,92.71
2018-06-27T08:00:17.796Z,92.71
2018-06-27T08:01:17.859Z,91.94
2018-06-27T08:02:17.923Z,91.69
2018-06-27T08:03:17.986Z,91.31
2018-06-27T08:04:18.050Z,91.21
2018-06-27T08:05:18.113Z,91.31
2018-06-27T08:06:18.176Z,90.34
2018-06-27T08:07:18.239Z,90.16
2018-06-27T08:08:18.304Z,90.25
2018-06-27T08:09:18.367Z,89.39
2018-06-27T08:10:18.430Z,89.39
2018-06-27T08:11:18.494Z,89.33
2018-06-27T08:12:18.577Z,88.71
2018-06-27T08:13:18.622Z,88.56
2018-06-27T08:14:18.684Z,87.98
2018-06-27T08:15:18.765Z,87.79
2018-06-27T08:16:18.811Z,87.60
2018-06-27T08:17:18.874Z,87.12
2018-06-27T08:18:18.939Z,86.92
2018-06-27T08:19:19.314Z,86.92
2018-06-27T08:20:19.069Z,87.21
2018-06-27T08:21:19.129Z,86.39
2018-06-27T08:22:19.194Z,86.00
2018-06-27T08:23:19.257Z,86.48
2018-06-27T08:24:19.334Z,85.52
2018-06-27T08:25:19.385Z,85.61
2018-06-27T08:26:19.510Z,84.69
2018-06-27T08:27:19.512Z,84.59
2018-06-27T08:28:19.576Z,84.89
2018-06-27T08:29:19.644Z,84.79
2018-06-27T08:30:19.712Z,83.25
2018-06-27T08:31:19.768Z,83.53
2018-06-27T08:32:19.833Z,83.34
2018-06-27T08:33:19.903Z,83.53
2018-06-27T08:34:19.963Z,82.57
2018-06-27T08:35:20.026Z,81.74
2018-06-27T08:36:20.089Z,81.45
2018-06-27T08:37:20.153Z,81.65
2018-06-27T08:38:20.218Z,81.41
2018-06-27T08:39:20.283Z,81.51
2018-06-27T08:40:20.348Z,82.09
2018-06-27T08:41:20.410Z,81.99
2018-06-27T08:42:20.474Z,82.51
2018-06-27T08:43:20.538Z,81.74
2018-06-27T08:44:20.637Z,80.87
2018-06-27T08:45:20.668Z,81.26
2018-06-27T08:46:20.732Z,80.53
2018-06-27T08:47:20.795Z,80.33
2018-06-27T08:48:20.860Z,78.79
2018-06-27T08:49:20.926Z,78.41
2018-06-27T08:50:20.990Z,77.83
2018-06-27T08:51:21.053Z,78.75
2018-06-27T08:52:21.118Z,78.69
2018-06-27T08:53:21.183Z,78.41
2018-06-27T08:54:21.248Z,78.41
2018-06-27T08:55:21.313Z,77.83
2018-06-27T08:56:21.379Z,77.25
2018-06-27T08:57:21.443Z,76.86
2018-06-27T08:58:21.509Z,77.00
2018-06-27T08:59:21.571Z,76.03
2018-06-27T09:00:21.636Z,76.42
2018-06-27T09:01:21.700Z,76.61
2018-06-27T09:02:21.765Z,76.80
2018-06-27T09:03:21.830Z,76.61
2018-06-27T09:04:21.898Z,76.42
2018-06-27T09:05:21.960Z,76.70
2018-06-27T09:06:22.025Z,76.12
2018-06-27T09:07:22.088Z,76.16
2018-06-27T09:08:22.154Z,74.13
2018-06-27T09:09:22.219Z,72.97
2018-06-27T09:10:22.284Z,72.58
2018-06-27T09:11:22.349Z,71.72
2018-06-27T09:12:22.436Z,71.72
2018-06-27T09:13:22.479Z,72.39
2018-06-27T09:14:22.548Z,72.88
2018-06-27T09:15:22.936Z,72.04
2018-06-27T09:16:22.675Z,71.17
2018-06-27T09:17:22.739Z,71.26
2018-06-27T09:18:22.805Z,70.53
2018-06-27T09:19:22.869Z,70.04
2018-06-27T09:20:22.934Z,69.27
2018-06-27T09:21:23.000Z,69.27
2018-06-27T09:22:23.065Z,68.98
2018-06-27T09:23:23.131Z,68.30
2018-06-27T09:24:23.195Z,67.82
2018-06-27T09:25:23.261Z,67.56
2018-06-27T09:26:23.330Z,67.18
2018-06-27T09:27:23.392Z,66.78
2018-06-27T09:28:23.473Z,66.69
2018-06-27T09:29:23.523Z,65.85
2018-06-27T09:30:23.587Z,65.85
2018-06-27T09:31:23.653Z,65.66
2018-06-27T09:32:23.718Z,66.05
2018-06-27T09:33:23.784Z,65.85
2018-06-27T09:34:23.849Z,63.62
2018-06-27T09:35:23.914Z,64.11
2018-06-27T09:36:23.980Z,63.43
2018-06-27T09:37:24.049Z,63.07
2018-06-27T09:38:24.112Z,63.17
2018-06-27T09:39:24.175Z,63.27
2018-06-27T09:40:24.241Z,63.46
2018-06-27T09:41:24.307Z,63.07
2018-06-27T09:42:24.374Z,62.30
2018-06-27T09:43:24.439Z,59.10
2018-06-27T09:44:24.504Z,59.39
2018-06-27T09:45:24.569Z,60.17
2018-06-27T09:46:25.288Z,60.27
2018-06-27T09:47:24.701Z,60.10
2018-06-27T09:48:24.766Z,60.10
2018-06-27T09:49:24.832Z,59.52
2018-06-27T09:50:24.962Z,59.23
2018-06-27T09:51:24.963Z,58.48
2018-06-27T09:52:25.034Z,58.48
2018-06-27T09:53:25.095Z,58.39
2018-06-27T09:54:25.163Z,58.48
2018-06-27T09:55:25.227Z,58.29
2018-06-27T09:56:25.293Z,58.39
2018-06-27T09:57:25.359Z,58.09
2018-06-27T09:58:25.426Z,58.29
2018-06-27T09:59:25.537Z,58.39
2018-06-27T10:00:25.557Z,58.00
2018-06-27T10:01:25.625Z,57.51
2018-06-27T10:02:25.690Z,56.15
2018-06-27T10:03:25.758Z,56.25
2018-06-27T10:04:25.825Z,56.83
2018-06-27T10:05:25.892Z,56.83
2018-06-27T10:06:25.959Z,56.47
2018-06-27T10:07:26.025Z,56.93
2018-06-27T10:08:26.094Z,57.06
2018-06-27T10:09:26.162Z,56.64
2018-06-27T10:10:26.234Z,56.57
2018-06-27T10:11:26.300Z,56.47
2018-06-27T10:12:26.369Z,55.60
2018-06-27T10:13:26.439Z,55.63
2018-06-27T10:14:26.510Z,56.28
2018-06-27T10:15:26.578Z,56.21
2018-06-27T10:16:26.653Z,56.60
2018-06-27T10:17:26.720Z,56.40
2018-06-27T10:18:26.791Z,55.33
2018-06-27T10:19:26.861Z,55.63
2018-06-27T10:20:26.933Z,55.04
2018-06-27T10:21:27.005Z,55.43
2018-06-27T10:22:27.170Z,54.78
2018-06-27T10:23:27.151Z,54.29
2018-06-27T10:24:27.221Z,53.47
2018-06-27T10:25:27.295Z,52.40
2018-06-27T10:26:27.368Z,52.43
2018-06-27T10:27:27.439Z,51.97
2018-06-27T10:28:27.565Z,51.31
2018-06-27T10:29:27.586Z,51.02
2018-06-27T10:30:27.660Z,50.82
2018-06-27T10:31:27.732Z,50.36
2018-06-27T10:32:27.809Z,50.68
2018-06-27T10:33:27.880Z,51.72
2018-06-27T10:34:27.956Z,50.78
2018-06-27T10:35:28.029Z,49.15
2018-06-27T10:36:28.103Z,48.78
2018-06-27T10:37:28.179Z,49.17
2018-06-27T10:38:28.257Z,48.44
2018-06-27T10:39:28.326Z,48.05
2018-06-27T10:40:28.401Z,48.24
2018-06-27T10:41:28.476Z,46.80
2018-06-27T10:42:28.551Z,46.61
2018-06-27T10:43:28.625Z,47.09
2018-06-27T10:44:28.712Z,47.05
2018-06-27T10:45:28.780Z,47.73
2018-06-27T10:46:28.852Z,47.19
2018-06-27T10:47:28.926Z,46.53
2018-06-27T10:48:29.003Z,47.53
2018-06-27T10:49:29.079Z,47.75
2018-06-27T10:50:29.154Z,49.15
2018-06-27T10:51:29.229Z,51.31
2018-06-27T10:52:29.304Z,51.75
2018-06-27T10:53:29.384Z,48.85
2018-06-27T10:54:29.608Z,47.15
2018-06-27T10:55:29.532Z,45.73
2018-06-27T10:56:29.611Z,44.37
2018-06-27T10:57:29.685Z,43.78
2018-06-27T10:58:29.761Z,44.64
2018-06-27T10:59:29.835Z,43.84
2018-06-27T11:00:29.913Z,44.76
2018-06-27T11:01:29.989Z,44.69
2018-06-27T11:02:30.064Z,43.04
2018-06-27T11:03:30.139Z,42.47
2018-06-27T11:04:30.215Z,42.57
2018-06-27T11:05:30.292Z,41.73
2018-06-27T11:06:30.367Z,40.78
2018-06-27T11:07:30.443Z,40.09
2018-06-27T11:08:30.519Z,40.47
2018-06-27T11:09:30.594Z,40.68
2018-06-27T11:10:30.670Z,40.58
2018-06-27T11:11:30.745Z,42.66
2018-06-27T11:12:30.820Z,43.35
2018-06-27T11:13:30.897Z,43.44
2018-06-27T11:14:30.981Z,42.59
2018-06-27T11:15:31.050Z,42.96
2018-06-27T11:16:31.127Z,43.10
2018-06-27T11:17:31.206Z,43.29
2018-06-27T11:18:31.279Z,43.12
2018-06-27T11:19:31.354Z,42.63
2018-06-27T11:20:31.435Z,42.96
2018-06-27T11:21:31.507Z,43.91
2018-06-27T11:22:31.583Z,43.38
2018-06-27T11:23:31.658Z,44.55
2018-06-27T11:24:31.734Z,44.49
2018-06-27T11:25:31.812Z,43.81
2018-06-27T11:26:31.887Z,44.03
2018-06-27T11:27:31.961Z,43.57
2018-06-27T11:28:32.088Z,44.35
2018-06-27T11:29:32.113Z,47.03
2018-06-27T11:30:32.188Z,48.54
2018-06-27T11:31:32.262Z,49.71
2018-06-27T11:32:32.339Z,48.71
2018-06-27T11:33:32.412Z,46.88
2018-06-27T11:34:32.488Z,45.95
2018-06-27T11:35:32.560Z,43.95
2018-06-27T11:36:32.634Z,43.76
2018-06-27T11:37:32.709Z,45.20
2018-06-27T11:38:32.844Z,44.64
2018-06-27T11:39:32.857Z,44.46
2018-06-27T11:40:32.933Z,43.32
2018-06-27T11:41:33.007Z,42.85
2018-06-27T11:42:33.081Z,41.60
2018-06-27T11:43:33.156Z,43.00
2018-06-27T11:44:33.253Z,44.40
2018-06-27T11:45:33.305Z,45.91
2018-06-27T11:46:33.379Z,46.27
2018-06-27T11:47:33.452Z,44.56
2018-06-27T11:48:33.528Z,43.92
2018-06-27T11:49:33.630Z,42.29
2018-06-27T11:50:33.675Z,42.71
2018-06-27T11:51:33.751Z,44.64
2018-06-27T11:52:33.824Z,45.76
2018-06-27T11:53:33.899Z,46.05
2018-06-27T11:54:34.015Z,46.15
2018-06-27T11:55:34.046Z,47.10
2018-06-27T11:56:34.120Z,47.10
2018-06-27T11:57:34.192Z,47.32
2018-06-27T11:58:34.268Z,47.03
2018-06-27T11:59:34.339Z,46.54
2018-06-27T12:00:34.413Z,47.10
2018-06-27T12:01:34.485Z,47.59
2018-06-27T12:02:34.558Z,47.96
2018-06-27T12:03:34.629Z,48.73
2018-06-27T12:04:34.702Z,48.63
2018-06-27T12:05:34.775Z,49.97
2018-06-27T12:06:34.848Z,50.07
2018-06-27T12:07:34.918Z,49.73
2018-06-27T12:08:35.090Z,47.07
2018-06-27T12:09:35.064Z,45.75
2018-06-27T12:10:35.133Z,44.58
2018-06-27T12:11:35.204Z,44.97
2018-06-27T12:12:35.276Z,44.29
2018-06-27T12:13:35.347Z,44.95
2018-06-27T12:14:35.420Z,46.15
2018-06-27T12:15:35.492Z,47.10
2018-06-27T12:16:35.563Z,48.05
2018-06-27T12:17:35.639Z,49.12
2018-06-27T12:18:35.707Z,48.63
2018-06-27T12:19:35.779Z,49.10
2018-06-27T12:20:35.852Z,49.10
2018-06-27T12:21:35.922Z,49.19
2018-06-27T12:22:35.997Z,49.49
2018-06-27T12:23:36.067Z,49.68
2018-06-27T12:24:36.141Z,51.01
2018-06-27T12:25:36.212Z,50.19
2018-06-27T12:26:36.283Z,49.07
2018-06-27T12:27:36.353Z,47.17
2018-06-27T12:28:36.426Z,46.20
2018-06-27T12:29:36.497Z,45.22
2018-06-27T12:30:36.568Z,46.00
2018-06-27T12:31:36.639Z,45.71
2018-06-27T12:32:36.711Z,45.12
2018-06-27T12:33:36.792Z,46.17
2018-06-27T12:34:36.853Z,45.34
2018-06-27T12:35:36.927Z,44.87
2018-06-27T12:36:37.000Z,44.73
2018-06-27T12:37:37.116Z,44.73
2018-06-27T12:38:37.199Z,44.19
2018-06-27T12:39:37.213Z,44.19
2018-06-27T12:40:37.286Z,42.94
2018-06-27T12:41:37.359Z,42.97
2018-06-27T12:42:37.432Z,43.12
2018-06-27T12:43:37.503Z,45.67
2018-06-27T12:44:37.581Z,45.00
2018-06-27T12:45:37.650Z,44.73
2018-06-27T12:46:37.724Z,43.80
2018-06-27T12:47:37.796Z,42.40
2018-06-27T12:48:37.869Z,42.32
2018-06-27T12:49:37.944Z,41.42
2018-06-27T12:50:38.018Z,41.13
2018-06-27T12:51:38.092Z,40.88
2018-06-27T12:52:38.166Z,39.53
2018-06-27T12:53:38.240Z,39.37